Stewarts Point, CA (95480)

10:28 AM PDT on August 26, 2016 (GMT -0700)
The Sea Ranch, Unit 3 | | Change Station

Elev 118 ft 38.69 °N, 123.43 °W | Updated 5 seconds ago

Overcast
Overcast
61.2 °F
Feels Like 61.2 °F
N
4.5
Wind Variable Wind from SSE
Gusts 4.9 mph

Today
High -- | Low -- °F
--% Chance of Precip.
Yesterday
High -- | Low -- °F
Precip. -- in
Pressure 29.92 in
Visibility 10.0 miles
Clouds Overcast 1200 ft
Dew Point 53 °F
Humidity 75%
Rainfall 0.00 in
Snow Depth Not available.
6:37 AM 7:51 PM
Waning Crescent, 33% visible
METAR KSTS 261653Z 24004KT 10SM OVC012 16/12 A2994 RMK AO2 SLP131 T01560122
Pressure 29.92 in
Visibility 10.0 miles
Clouds Overcast 1200 ft
Dew Point 53 °F
Humidity 75%
Rainfall 0.00 in
Snow Depth Not available.
6:37 AM 7:51 PM
Waning Crescent, 33% visible
METAR KSTS 261653Z 24004KT 10SM OVC012 16/12 A2994 RMK AO2 SLP131 T01560122

10-Day Weather Forecast

Almanac

Astronomy

Aug. 26, 2016 Rise Set
Actual Time
Civil Twilight
Nautical Twilight
Astronomical Twilight
Moon
Length of Visible Light
Length of Day
Tomorrow will be .
, % of the Moon is Illuminated

Today's Extremes

State Highs State Lows

Community

WunderPhotos

Upload Photos

1,935,145 photos uploaded!

WunderBlog® & News

Nearby

Air Quality

  Air Quality AQ Index Pollutant
Not available.

Snow Depth

Station Depth Elevation

Earthquake Activity

City Distance Mag. Time & Date
Minimum magnitude displayed is 2.5.

Coastal Water Temperatures

Place Temperature

Stations

Nearby Weather Stations

Station Location Temp. Windchill Dew Point Humidity Wind Precip. Elev Updated Type
                   

Watches & Warnings

There are currently no watches in effect.